00:33
Airports
History
Links
Donate
Help keep this website running!
PayPal
Bitcoin
Information on this page is community maintained and may be outdated or inaccurate and is intended for reference only or PC simulator navigating.
Always use approved charts for navigating.
ENVD
Vadso
Vadso (ENVD)
Finnmark, Norway (9800)
(C)
Lat/Lng:70° 3' 54.81" N / 29° 50' 38.52" E
70.065224 / 29.844034
Elevation:125'ft 38mMSL
ID / ICAO:ENVD
Runways:1
Longest:(09-27) 885.1m 2,904ft Asphalt
Controlled:Yes
Distance To
Airport ID:
Nearby VORs <50NM
Nearby NDBs
METARUpdated 07-24-17 22:50 GMT
Altimeter: 30.15
Visibility: 0.5 statute miles
Wind: 8 knots (020°)
Temp: 8°c 46°f
Humidity: 100.0%

METAR: ENVD 242250Z 02008KT 0800 FG VV001 08/08 Q1021

(Powered by phpweather)
Runway 09 / 27
Dimensions:885.1 x 29.9m 2904' x 98'ft
Surface:Asphalt
Edge Lights:Medium intensity
Runway 09 [A]Runway 27 [B]
Heading:087°TH 267°TH
Lat:
Lng:
70° 3' 54.06"N
29° 49' 56.79"E
70° 3' 55.55"N
29° 51' 20.26"E
ALS:RAILRAIL
User Notes and Comments
Google Map
Nearby Airports
(C) HOYBUKTMOEN 23.5 NM
ENKR S 177°
(C) SVARTNES 34.5 NM
ENSS NE 54°
(C) BATSFJORD 37.1 NM
ENBS N 354°
(C) Berlevaag 58.8 NM
ENBV NNW 341°
(C) Mehamn 81.2 NM
ENMH NW 325°
(C) Honningsvaag Valan 110.2 NM
ENHV (WX) NW 306°
(C) Murmansk 113.3 NM
ULMM (WX) SE 141°
VFR Chart
Flight Planning at SkyVector.com